Terminal Aerodrome Forecast
Issued by NWS

Home | Current Version | Previous Version | Text Only | Print | Product List | Glossary On
Versions: 1 2 3 4 5 6 7 8 9 10 11 12 13 14 15 16 17 18 19 20 21 22 23 24
000
FTUS42 KRAH 210213 AAA
TAFRWI
TAF AMD
KRWI 210213Z 2102/2124 VRB03KT P6SM OVC050
      TEMPO 2104/2108 5SM BR OVC035
     FM210800 00000KT 5SM BR OVC025
      TEMPO 2109/2112 1SM BR OVC015
     FM211400 04005KT P6SM BKN050=

USA.gov is the U.S. government's official web portal to all federal, state and local government web resources and services.